»·PEaware :: N3452E KOAK-KSNA

N3452E :: KOAK-KSNA

FLIGHT INFORMATION

Flight Status: Arrived
Operator: Privately registered:
United States
More flights under this callsign
Pilot: John C. (27555)
Aircraft: PILATUS PC-12 EAGLE
(PC12)
More flights by this aircraft type
Origin: KOAK Metro Oakland Intl
United States
Destination: KSNA John Wayne-Orange Co
United States
More flights between these airports :: More routes between these airports
Route: OAK5 OSI SNS J6 LANDO LHS V459 SLI
File this flight plan on PilotEdge
Remarks:
Altitude:
(Current/Filed)
21,000ft
Speed:
(Current/Filed)
250kts
Departed: 16-Feb-21 08:01 PM
Arrived: 16-Feb-21 09:19 PM
Distance/Time
Traveled:
322nm/1:18
Distance/Time
To Go:
Arrived

Flight Plot

Page will automatically refresh every two minutes.

Flight plan parsing failed; only flown route is shown


Map Options




Map Legend


Flown Route
Filed Route
Departure Airport
Arrival Airport
Navaid (VOR, NDB)
Fix

Horizontal Profiles

Position Reports

Time Latitude Longitude Heading Altitude Ground
Speed
16-Feb-21 19:41 37.730418 -122.213248 307 7ft 0kts
16-Feb-21 19:42 37.730418 -122.213248 307 7ft 0kts
16-Feb-21 19:43 37.730418 -122.213248 307 7ft 0kts
16-Feb-21 19:44 37.730418 -122.213248 307 7ft 0kts
16-Feb-21 19:45 37.730418 -122.213248 307 7ft 0kts
16-Feb-21 19:46 37.730418 -122.213248 307 7ft 0kts
16-Feb-21 19:47 37.730418 -122.213248 307 7ft 0kts
16-Feb-21 19:48 37.730418 -122.213248 307 7ft 0kts
16-Feb-21 19:49 37.730418 -122.213248 307 7ft 0kts
16-Feb-21 19:50 37.730418 -122.213248 307 7ft 0kts
16-Feb-21 19:51 37.730418 -122.213248 307 7ft 0kts
16-Feb-21 19:52 37.730430 -122.213509 226 7ft 3kts
16-Feb-21 19:53 37.728727 -122.213578 111 7ft 8kts
16-Feb-21 19:54 37.727621 -122.210064 111 7ft 12kts
16-Feb-21 19:55 37.726259 -122.205812 112 7ft 13kts
16-Feb-21 19:56 37.725781 -122.204557 143 7ft 0kts
16-Feb-21 19:57 37.725781 -122.204557 143 7ft 0kts
16-Feb-21 19:58 37.725781 -122.204557 143 7ft 0kts
16-Feb-21 19:59 37.725537 -122.204477 187 7ft 6kts
16-Feb-21 20:00 37.726645 -122.210317 292 7ft 78kts
16-Feb-21 20:01 37.745072 -122.246684 307 1194ft 148kts
16-Feb-21 20:02 37.772761 -122.290686 307 2092ft 178kts
16-Feb-21 20:03 37.800726 -122.336364 307 4018ft 167kts
16-Feb-21 20:04 37.820183 -122.386123 258 6017ft 169kts
16-Feb-21 20:05 37.803552 -122.442650 253 8130ft 174kts
16-Feb-21 20:06 37.759632 -122.443833 158 9839ft 202kts
16-Feb-21 20:07 37.704288 -122.418164 164 11394ft 223kts
16-Feb-21 20:08 37.643505 -122.391313 166 12989ft 239kts
16-Feb-21 20:09 37.579622 -122.363185 167 14511ft 250kts
16-Feb-21 20:10 37.512544 -122.333693 169 15920ft 261kts
16-Feb-21 20:11 37.442834 -122.303077 170 17211ft 271kts
16-Feb-21 20:12 37.372852 -122.263700 147 18349ft 289kts
16-Feb-21 20:13 37.308009 -122.201701 146 19390ft 296kts
16-Feb-21 20:14 37.241588 -122.139297 146 20329ft 302kts
16-Feb-21 20:15 37.173551 -122.075682 146 21175ft 309kts
16-Feb-21 20:16 37.100696 -122.007652 145 21223ft 340kts
16-Feb-21 20:17 37.022845 -121.935109 145 21221ft 356kts
16-Feb-21 20:19 36.942700 -121.860644 145 21222ft 362kts
16-Feb-21 20:20 36.861811 -121.785679 145 21206ft 363kts
16-Feb-21 20:21 36.780859 -121.710937 145 21208ft 362kts
16-Feb-21 20:22 36.700015 -121.636354 145 21210ft 361kts
16-Feb-21 20:23 36.618474 -121.563139 147 21213ft 361kts
16-Feb-21 20:24 36.536583 -121.491360 147 21220ft 362kts
16-Feb-21 20:25 36.454314 -121.419381 147 21227ft 362kts
16-Feb-21 20:26 36.372007 -121.347501 148 21227ft 363kts
16-Feb-21 20:27 36.289477 -121.275731 148 21218ft 361kts
16-Feb-21 20:28 36.207637 -121.204694 148 21220ft 361kts
16-Feb-21 20:29 36.125173 -121.133312 148 21208ft 362kts
16-Feb-21 20:30 36.042568 -121.061981 148 21192ft 364kts
16-Feb-21 20:31 35.970520 -120.977435 108 21179ft 357kts
16-Feb-21 20:32 35.935143 -120.864522 103 21166ft 354kts
16-Feb-21 20:33 35.898932 -120.751499 103 21166ft 355kts
16-Feb-21 20:34 35.862490 -120.638455 103 21153ft 354kts
16-Feb-21 20:35 35.826125 -120.526018 103 21155ft 354kts
16-Feb-21 20:36 35.789524 -120.413302 103 21158ft 355kts
16-Feb-21 20:37 35.752649 -120.300102 103 21145ft 356kts
16-Feb-21 20:38 35.715743 -120.187385 103 21147ft 355kts
16-Feb-21 20:39 35.678696 -120.074585 103 21150ft 356kts
16-Feb-21 20:40 35.639921 -119.962558 111 21152ft 361kts
16-Feb-21 20:41 35.590496 -119.854879 113 21155ft 363kts
16-Feb-21 20:41 35.549258 -119.765049 113 21157ft 363kts
16-Feb-21 20:43 35.491273 -119.639069 113 21155ft 363kts
16-Feb-21 20:44 35.441403 -119.531124 113 21146ft 364kts
16-Feb-21 20:45 35.391384 -119.423169 113 21137ft 364kts
16-Feb-21 20:46 35.341478 -119.315753 114 21116ft 364kts
16-Feb-21 20:47 35.291514 -119.208680 114 21118ft 362kts
16-Feb-21 20:47 35.249954 -119.119781 114 21120ft 362kts
16-Feb-21 20:48 35.199916 -119.013078 114 21122ft 362kts
16-Feb-21 20:50 35.141166 -118.888204 114 20988ft 368kts
16-Feb-21 20:51 35.089931 -118.779772 114 19763ft 368kts
16-Feb-21 20:51 35.047654 -118.690507 113 18743ft 362kts
16-Feb-21 20:52 34.977762 -118.610870 178 17542ft 345kts
16-Feb-21 20:53 34.885516 -118.601024 184 16400ft 330kts
16-Feb-21 20:54 34.795100 -118.590398 181 15193ft 323kts
16-Feb-21 20:55 34.707687 -118.579954 180 14041ft 310kts
16-Feb-21 20:56 34.626914 -118.544416 154 14000ft 311kts
16-Feb-21 20:57 34.549348 -118.498469 155 14001ft 310kts
16-Feb-21 20:58 34.470020 -118.452220 154 13261ft 323kts
16-Feb-21 20:59 34.390350 -118.405779 154 12288ft 308kts
16-Feb-21 21:00 34.316972 -118.362963 153 11304ft 283kts
16-Feb-21 21:01 34.247737 -118.322617 154 11001ft 273kts
16-Feb-21 21:02 34.178412 -118.282433 154 11002ft 278kts
16-Feb-21 21:03 34.109179 -118.242467 154 10524ft 271kts
16-Feb-21 21:04 34.043576 -118.204499 154 9535ft 253kts
16-Feb-21 21:05 33.982763 -118.170448 169 9004ft 225kts
16-Feb-21 21:06 33.920454 -118.177810 192 7874ft 228kts
16-Feb-21 21:07 33.858454 -118.188620 192 6661ft 217kts
16-Feb-21 21:08 33.800567 -118.197585 171 5440ft 209kts
16-Feb-21 21:09 33.760570 -118.157242 131 4232ft 181kts
16-Feb-21 21:10 33.724600 -118.113464 132 3048ft 184kts
16-Feb-21 21:11 33.694175 -118.067431 125 2231ft 176kts
16-Feb-21 21:12 33.666958 -118.019850 103 2000ft 165kts
16-Feb-21 21:13 33.654245 -117.977938 111 1994ft 117kts
16-Feb-21 21:14 33.641051 -117.944677 111 1209ft 99kts
16-Feb-21 21:15 33.637405 -117.915209 63 734ft 88kts
16-Feb-21 21:16 33.647446 -117.886874 44 643ft 95kts
16-Feb-21 21:17 33.670142 -117.872357 30 73ft 80kts
16-Feb-21 21:18 33.678124 -117.868499 272 60ft 0kts
16-Feb-21 21:19 33.677765 -117.868932 209 60ft 9kts
16-Feb-21 21:20 33.674139 -117.871300 207 60ft 17kts
16-Feb-21 21:21 33.671644 -117.873851 204 60ft 0kts

Navigation Log

Ident Type
Flight plan parsing failed, navigation log unavailable